Time;durP1;ratioP1;P1;durP2;ratioP2;P2;SDS_P1;SDS_P2;PMS_P1;PMS_P2;Temp;Humidity;BMP_temperature;BMP_pressure;BME280_temperature;BME280_humidity;BME280_pressure;Samples;Min_cycle;Max_cycle;Signal;HPM_P1;HPM_P2
2023/01/06 00:01:45;;;;;;;2.72;1.27;;;14.90;93.20;;;;;;5065427;28;20227;-62
2023/01/06 00:04:34;;;;;;;2.78;1.00;;;14.80;93.10;;;;;;5073867;28;20205;-63
2023/01/06 00:07:22;;;;;;;1.37;0.90;;;14.90;93.00;;;;;;5072319;28;20196;-62
2023/01/06 00:10:11;;;;;;;2.47;1.23;;;14.90;93.00;;;;;;5073679;28;20232;-62
2023/01/06 00:12:59;;;;;;;0.90;0.80;;;14.80;93.10;;;;;;5074043;28;20203;-62
2023/01/06 00:15:47;;;;;;;2.65;1.20;;;15.20;93.30;;;;;;5073441;28;20250;-62
2023/01/06 00:18:35;;;;;;;1.23;1.03;;;14.50;93.20;;;;;;5074696;28;20197;-63
2023/01/06 00:21:25;;;;;;;2.57;1.30;;;14.80;93.20;;;;;;5090393;28;20521;-63
2023/01/06 00:24:13;;;;;;;1.55;1.05;;;14.90;93.30;;;;;;5092848;28;20209;-63
2023/01/06 00:27:02;;;;;;;1.88;1.00;;;14.90;93.10;;;;;;5092352;28;20287;-63
2023/01/06 00:29:50;;;;;;;1.00;0.90;;;14.90;93.30;;;;;;5074889;28;20222;-63
2023/01/06 00:32:38;;;;;;;1.85;1.00;;;14.80;93.20;;;;;;5073475;28;20224;-62
2023/01/06 00:35:26;;;;;;;1.27;0.98;;;15.00;93.30;;;;;;5073102;28;20583;-60
2023/01/06 00:38:15;;;;;;;2.30;1.03;;;14.90;93.20;;;;;;5073694;28;20204;-60
2023/01/06 00:42:02;;;;;;;2.08;1.40;;;14.80;93.40;;;;;;5072626;28;20228;-62
2023/01/06 00:44:12;;;;;;;1.35;0.93;;;14.80;93.10;;;;;;5072508;28;20232;-62
2023/01/06 00:47:01;;;;;;;1.00;0.70;;;14.90;93.10;;;;;;5072220;28;20881;-62
2023/01/06 00:49:49;;;;;;;0.90;0.90;;;14.80;93.30;;;;;;5072837;28;20228;-63
2023/01/06 00:52:37;;;;;;;1.10;0.90;;;14.80;93.20;;;;;;5072255;28;20705;-62
2023/01/06 00:55:28;;;;;;;1.27;1.00;;;14.80;93.20;;;;;;5072410;28;20582;-62
2023/01/06 00:58:16;;;;;;;4.50;0.77;;;14.80;93.80;;;;;;5072789;28;20192;-62
2023/01/06 01:01:05;;;;;;;1.50;1.40;;;14.80;93.50;;;;;;5071868;28;20219;-62
2023/01/06 01:03:53;;;;;;;1.97;1.20;;;14.80;93.60;;;;;;5071618;28;20196;-62
2023/01/06 01:06:43;;;;;;;2.00;0.80;;;15.00;93.40;;;;;;5072293;28;20223;-62
2023/01/06 01:09:32;;;;;;;1.87;1.70;;;14.90;93.60;;;;;;5071675;28;20291;-62
2023/01/06 01:12:21;;;;;;;2.75;0.80;;;14.80;93.50;;;;;;5072386;28;20330;-62
2023/01/06 01:15:10;;;;;;;1.07;1.00;;;14.70;93.40;;;;;;5076307;28;20259;-62
2023/01/06 01:17:58;;;;;;;2.10;0.80;;;14.90;93.30;;;;;;5075711;28;20283;-62
2023/01/06 01:20:46;;;;;;;0.80;0.75;;;14.90;99.90;;;;;;5072189;28;20291;-63
2023/01/06 01:23:34;;;;;;;2.40;0.90;;;14.70;92.90;;;;;;5071517;28;20205;-62
2023/01/06 01:26:22;;;;;;;0.80;0.80;;;14.80;92.90;;;;;;5071692;28;20323;-62
2023/01/06 01:29:13;;;;;;;2.13;1.00;;;14.80;92.90;;;;;;5071511;28;20329;-62
2023/01/06 01:32:01;;;;;;;1.42;0.98;;;14.80;93.20;;;;;;5071607;28;20235;-62
2023/01/06 01:34:49;;;;;;;2.10;0.85;;;14.80;93.00;;;;;;5071800;28;20211;-62
2023/01/06 01:37:37;;;;;;;2.00;1.10;;;14.90;93.00;;;;;;5071107;28;20330;-63
2023/01/06 01:40:25;;;;;;;1.23;1.13;;;14.80;93.10;;;;;;5071332;28;20682;-60
2023/01/06 01:43:14;;;;;;;1.20;0.90;;;14.80;92.80;;;;;;5071905;28;20199;-60
2023/01/06 01:46:03;;;;;;;1.48;1.05;;;14.70;93.00;;;;;;5072365;28;20751;-62
2023/01/06 01:48:52;;;;;;;1.73;1.00;;;14.80;93.00;;;;;;5071201;28;20670;-62
2023/01/06 01:51:43;;;;;;;2.70;1.10;;;14.80;92.80;;;;;;5072001;28;20229;-62
2023/01/06 01:54:34;;;;;;;1.10;1.00;;;14.80;93.00;;;;;;5071244;28;20283;-63
2023/01/06 01:57:27;;;;;;;2.43;1.00;;;14.80;93.00;;;;;;5071396;28;20582;-62
2023/01/06 02:00:17;;;;;;;0.90;0.90;;;14.80;93.00;;;;;;5071129;28;20629;-62
2023/01/06 02:03:07;;;;;;;1.10;1.00;;;14.90;92.90;;;;;;5070720;28;20275;-62
2023/01/06 02:06:00;;;;;;;1.87;0.90;;;14.80;92.80;;;;;;5071521;28;20197;-62
2023/01/06 02:08:55;;;;;;;0.90;0.90;;;14.70;92.90;;;;;;5071178;28;20680;-62
2023/01/06 02:11:46;;;;;;;1.67;1.57;;;14.80;92.90;;;;;;5070961;28;20459;-62
2023/01/06 02:14:34;;;;;;;1.23;0.90;;;14.80;92.80;;;;;;5073275;28;20212;-60
2023/01/06 02:17:39;;;;;;;3.33;1.00;;;14.80;92.90;;;;;;5073257;28;20196;-60
2023/01/06 02:20:50;;;;;;;2.00;0.90;;;14.80;93.00;;;;;;5071808;28;20204;-60
2023/01/06 02:24:14;;;;;;;0.80;0.80;;;14.80;92.90;;;;;;5072183;28;20208;-60
2023/01/06 02:27:31;;;;;;;1.30;1.00;;;14.80;92.90;;;;;;5072448;28;20773;-60
2023/01/06 02:30:47;;;;;;;2.07;0.90;;;14.70;93.20;;;;;;5066439;28;20319;-60
2023/01/06 02:33:41;;;;;;;0.83;0.80;;;14.90;93.30;;;;;;5070655;28;20311;-62
2023/01/06 02:36:43;;;;;;;1.40;1.20;;;14.80;93.30;;;;;;5071060;28;20275;-62
2023/01/06 02:39:43;;;;;;;1.35;1.00;;;14.90;93.40;;;;;;5071704;28;20204;-62
2023/01/06 02:42:42;;;;;;;1.23;0.90;;;14.80;93.20;;;;;;5068187;28;20343;-62
2023/01/06 02:45:40;;;;;;;1.77;1.00;;;14.80;93.30;;;;;;5071784;28;20197;-62
2023/01/06 02:48:36;;;;;;;1.10;0.83;;;14.70;92.90;;;;;;5070020;28;20287;-62
2023/01/06 02:51:30;;;;;;;1.10;1.00;;;14.80;92.70;;;;;;5071547;28;20502;-62
2023/01/06 02:54:27;;;;;;;1.23;0.90;;;14.80;92.80;;;;;;5070173;28;20208;-63
2023/01/06 02:57:21;;;;;;;1.80;1.10;;;14.70;92.70;;;;;;5070238;28;20675;-62
2023/01/06 03:00:14;;;;;;;2.73;0.90;;;14.70;92.60;;;;;;5071742;28;20200;-62
2023/01/06 03:03:05;;;;;;;1.17;0.95;;;14.80;92.80;;;;;;5071095;28;20196;-62
2023/01/06 03:05:57;;;;;;;1.10;0.80;;;14.80;92.70;;;;;;5072364;28;20288;-62
2023/01/06 03:08:49;;;;;;;2.10;0.93;;;14.80;92.90;;;;;;5070401;28;20203;-62
2023/01/06 03:11:39;;;;;;;1.17;1.00;;;14.90;92.80;;;;;;5070778;28;20303;-62
2023/01/06 03:14:30;;;;;;;1.73;1.10;;;14.80;92.80;;;;;;5071513;28;20255;-62
2023/01/06 03:17:18;;;;;;;1.40;1.30;;;14.90;92.80;;;;;;5070925;28;20284;-62
2023/01/06 03:20:08;;;;;;;2.47;1.10;;;14.70;92.90;;;;;;5071441;28;20201;-62
2023/01/06 03:22:56;;;;;;;1.00;0.90;;;14.80;92.90;;;;;;5074584;28;20259;-62
2023/01/06 03:25:45;;;;;;;1.63;0.90;;;14.80;92.90;;;;;;5075343;28;20277;-62
2023/01/06 03:28:33;;;;;;;1.43;0.90;;;14.90;93.00;;;;;;5073392;28;20204;-62
2023/01/06 03:31:32;;;;;;;3.43;1.03;;;14.80;93.00;;;;;;5074723;28;20781;-62
2023/01/06 03:34:28;;;;;;;2.03;1.20;;;14.70;92.80;;;;;;5074509;28;20196;-62
2023/01/06 03:37:26;;;;;;;1.10;1.00;;;14.70;93.00;;;;;;5074044;28;20204;-62
2023/01/06 03:40:28;;;;;;;1.00;0.90;;;14.80;92.90;;;;;;5075380;28;20322;-60
2023/01/06 03:43:24;;;;;;;1.00;0.80;;;14.80;92.90;;;;;;5075299;28;20275;-60
2023/01/06 03:46:22;;;;;;;0.90;0.90;;;14.80;92.90;;;;;;5074551;28;20229;-60
2023/01/06 03:49:18;;;;;;;2.80;0.80;;;14.70;93.00;;;;;;5073890;28;20273;-60
2023/01/06 03:52:13;;;;;;;1.25;1.15;;;14.70;93.00;;;;;;5073968;28;20347;-60
2023/01/06 03:55:08;;;;;;;0.80;0.80;;;14.70;93.00;;;;;;5075115;28;20200;-61
2023/01/06 03:57:58;;;;;;;1.43;0.87;;;14.80;92.90;;;;;;5074092;28;20329;-61
2023/01/06 04:00:48;;;;;;;2.27;0.80;;;14.70;99.90;;;;;;5075407;28;20285;-61
2023/01/06 04:03:37;;;;;;;1.27;1.17;;;14.80;93.20;;;;;;5075061;28;20197;-61
2023/01/06 04:06:25;;;;;;;0.70;0.70;;;14.70;93.20;;;;;;5075857;28;20213;-61
2023/01/06 04:09:13;;;;;;;1.35;0.90;;;14.50;93.00;;;;;;5075057;28;20339;-61
2023/01/06 04:15:09;;;;;;;0.83;0.83;;;14.40;93.00;;;;;;5073514;28;20283;-61
2023/01/06 04:17:59;;;;;;;3.30;1.00;;;14.80;93.10;;;;;;5073335;28;20333;-61
2023/01/06 04:20:47;;;;;;;3.22;1.08;;;14.80;99.90;;;;;;5074290;28;20579;-61
2023/01/06 04:23:35;;;;;;;2.40;1.00;;;14.80;92.70;;;;;;5074876;28;20197;-61
2023/01/06 04:26:23;;;;;;;2.03;1.00;;;14.80;92.70;;;;;;5074882;28;20288;-61
2023/01/06 04:29:11;;;;;;;2.00;1.10;;;14.50;92.60;;;;;;5074971;28;20264;-61
2023/01/06 04:31:59;;;;;;;1.57;1.03;;;14.80;92.80;;;;;;5072740;28;20217;-61
2023/01/06 04:34:48;;;;;;;3.70;1.13;;;14.70;92.70;;;;;;5075087;28;20224;-61
2023/01/06 04:37:37;;;;;;;1.30;0.90;;;14.70;92.80;;;;;;5076260;28;20279;-61
2023/01/06 04:40:25;;;;;;;0.80;0.80;;;15.30;93.30;;;;;;5077869;28;20318;-61
2023/01/06 04:43:15;;;;;;;2.70;0.90;;;14.80;92.90;;;;;;5084753;28;20229;-61
2023/01/06 04:46:03;;;;;;;1.17;1.00;;;14.50;92.90;;;;;;5073143;28;20197;-61
2023/01/06 04:48:51;;;;;;;1.10;1.00;;;14.80;92.90;;;;;;5068497;28;20209;-61
2023/01/06 04:51:40;;;;;;;1.02;0.98;;;14.80;92.90;;;;;;5053936;28;20824;-61
2023/01/06 04:54:28;;;;;;;1.10;1.00;;;14.80;93.00;;;;;;5056815;28;20606;-61
2023/01/06 04:57:16;;;;;;;1.05;0.95;;;14.80;93.00;;;;;;5065536;28;20225;-61
2023/01/06 05:00:06;;;;;;;2.45;0.70;;;14.80;93.00;;;;;;5060955;28;20229;-61
2023/01/06 05:02:54;;;;;;;0.95;0.85;;;14.80;93.00;;;;;;5055428;28;20576;-61
2023/01/06 05:05:42;;;;;;;1.83;1.08;;;14.70;92.90;;;;;;5053668;28;20225;-61
2023/01/06 05:08:32;;;;;;;1.80;1.10;;;14.90;93.00;;;;;;5053445;28;20201;-61
2023/01/06 05:11:21;;;;;;;1.50;0.90;;;14.80;93.00;;;;;;5053401;28;20223;-60
2023/01/06 05:14:09;;;;;;;1.57;1.00;;;14.80;93.00;;;;;;5054008;28;20307;-60
2023/01/06 05:16:57;;;;;;;1.15;0.90;;;14.80;93.00;;;;;;5053752;28;20205;-61
2023/01/06 05:19:45;;;;;;;1.00;0.95;;;14.60;92.90;;;;;;5052483;28;20303;-61
2023/01/06 05:22:33;;;;;;;1.67;0.90;;;14.80;93.00;;;;;;5053222;28;20217;-61
2023/01/06 05:25:23;;;;;;;1.42;1.05;;;14.80;93.00;;;;;;5052911;28;20231;-61
2023/01/06 05:28:11;;;;;;;1.52;1.00;;;14.80;93.10;;;;;;5054216;28;20212;-61
2023/01/06 05:30:59;;;;;;;1.70;0.80;;;14.80;93.10;;;;;;5053698;28;20221;-61
2023/01/06 05:33:47;;;;;;;1.52;1.00;;;14.80;93.10;;;;;;5053860;28;20217;-60
2023/01/06 05:36:35;;;;;;;2.63;0.90;;;14.80;93.10;;;;;;5053635;28;20197;-61
2023/01/06 05:39:24;;;;;;;4.47;1.20;;;14.80;93.20;;;;;;5051948;28;20256;-61
2023/01/06 05:42:15;;;;;;;1.30;0.80;;;14.80;93.10;;;;;;5053268;28;20359;-61
2023/01/06 05:45:04;;;;;;;1.67;0.80;;;14.80;93.20;;;;;;5050976;28;20273;-61
2023/01/06 05:47:52;;;;;;;1.00;0.90;;;14.80;93.20;;;;;;5052041;28;20690;-61
2023/01/06 05:50:41;;;;;;;2.87;1.20;;;14.70;99.90;;;;;;5052067;28;20669;-61
2023/01/06 05:53:32;;;;;;;3.03;1.27;;;14.80;93.00;;;;;;5051816;28;20259;-61
2023/01/06 05:56:21;;;;;;;2.35;1.38;;;14.70;93.00;;;;;;5051923;28;20197;-61
2023/01/06 05:59:11;;;;;;;1.33;1.23;;;14.80;92.90;;;;;;5051619;28;20197;-61
2023/01/06 06:01:59;;;;;;;1.60;1.20;;;14.50;92.90;;;;;;5052689;28;20225;-61
2023/01/06 06:04:47;;;;;;;2.53;1.80;;;14.80;93.00;;;;;;5052915;28;20208;-61
2023/01/06 06:07:35;;;;;;;1.58;1.10;;;14.90;93.10;;;;;;5052242;28;20237;-61
2023/01/06 06:10:23;;;;;;;2.55;1.17;;;14.80;93.10;;;;;;5052408;28;20609;-61
2023/01/06 06:13:11;;;;;;;0.90;0.90;;;14.70;93.00;;;;;;5051996;28;20304;-60
2023/01/06 06:16:06;;;;;;;1.40;1.20;;;14.00;92.70;;;;;;5051161;28;20223;-61
2023/01/06 06:18:56;;;;;;;0.90;0.80;;;14.80;93.10;;;;;;5052543;28;20209;-61
2023/01/06 06:21:44;;;;;;;1.90;1.05;;;14.80;92.80;;;;;;5052126;28;20225;-61
2023/01/06 06:24:32;;;;;;;1.52;1.02;;;15.10;93.20;;;;;;5054802;28;20276;-61
2023/01/06 06:27:20;;;;;;;1.10;1.00;;;14.80;93.10;;;;;;5054825;28;20224;-61
2023/01/06 06:30:08;;;;;;;1.20;1.10;;;14.80;93.10;;;;;;5054256;28;20205;-60
2023/01/06 06:32:58;;;;;;;0.80;0.80;;;14.90;93.10;;;;;;5052365;28;20307;-61
2023/01/06 06:35:56;;;;;;;0.95;0.90;;;14.70;93.10;;;;;;5052083;28;20232;-61
2023/01/06 06:38:45;;;;;;;0.98;0.88;;;14.50;92.90;;;;;;5051390;28;20682;-61
2023/01/06 06:41:33;;;;;;;3.43;1.00;;;14.80;93.10;;;;;;5052556;28;20733;-61
2023/01/06 06:44:21;;;;;;;1.08;1.00;;;14.70;93.00;;;;;;5051364;28;20229;-61
2023/01/06 06:47:09;;;;;;;1.00;0.90;;;14.80;93.00;;;;;;5052403;28;20244;-61
2023/01/06 06:49:58;;;;;;;1.27;1.07;;;14.80;93.10;;;;;;5051759;28;20233;-61
2023/01/06 06:52:46;;;;;;;1.30;0.80;;;14.70;93.10;;;;;;5052614;28;20308;-61
2023/01/06 06:55:34;;;;;;;1.08;0.93;;;14.70;93.10;;;;;;5054595;28;20761;-61
2023/01/06 06:58:23;;;;;;;1.33;0.90;;;14.80;93.20;;;;;;5055715;28;20197;-61
2023/01/06 07:01:13;;;;;;;1.93;0.90;;;14.90;93.20;;;;;;5055018;28;20742;-61
2023/01/06 07:04:01;;;;;;;0.90;0.90;;;14.80;93.10;;;;;;5054415;28;20220;-61
2023/01/06 07:06:50;;;;;;;1.27;0.90;;;14.80;93.20;;;;;;5055119;28;20209;-61
2023/01/06 07:09:38;;;;;;;2.15;1.08;;;14.70;93.10;;;;;;5056302;28;20251;-61
2023/01/06 07:12:26;;;;;;;2.33;1.08;;;14.80;93.20;;;;;;5055078;28;20304;-61
2023/01/06 07:15:15;;;;;;;1.03;0.97;;;14.80;93.20;;;;;;5054536;28;20224;-61
2023/01/06 07:18:04;;;;;;;3.22;1.13;;;14.80;93.20;;;;;;5056360;28;20201;-61
2023/01/06 07:20:52;;;;;;;2.17;0.88;;;14.90;99.90;;;;;;5054597;28;20750;-61
2023/01/06 07:23:42;;;;;;;2.33;1.10;;;14.90;93.30;;;;;;5055262;28;20198;-61
2023/01/06 07:26:30;;;;;;;1.15;1.05;;;14.70;93.30;;;;;;5055556;28;20307;-61
2023/01/06 07:29:18;;;;;;;1.00;0.90;;;14.80;93.30;;;;;;5054822;28;20509;-61
2023/01/06 07:32:06;;;;;;;1.83;1.10;;;14.80;93.30;;;;;;5056119;28;20303;-61
2023/01/06 07:34:57;;;;;;;1.30;0.95;;;14.90;93.30;;;;;;5055163;28;20616;-61
2023/01/06 07:37:45;;;;;;;1.73;1.27;;;14.90;93.30;;;;;;5056395;28;20284;-61
2023/01/06 07:40:35;;;;;;;0.80;0.80;;;15.00;93.20;;;;;;5055122;28;20248;-61
2023/01/06 07:43:23;;;;;;;1.45;1.00;;;15.00;93.20;;;;;;5056048;28;20197;-61
2023/01/06 07:46:11;;;;;;;1.10;1.00;;;15.10;93.20;;;;;;5054260;28;20189;-61
2023/01/06 07:48:59;;;;;;;0.90;0.90;;;15.10;93.10;;;;;;5065993;28;20201;-61
2023/01/06 07:51:47;;;;;;;1.20;0.88;;;15.20;93.10;;;;;;5055793;28;20271;-61
2023/01/06 07:54:35;;;;;;;1.90;1.53;;;15.20;93.00;;;;;;5054716;28;20247;-61
2023/01/06 07:57:25;;;;;;;1.50;1.00;;;15.00;92.90;;;;;;5058445;28;20242;-61
2023/01/06 08:00:14;;;;;;;4.10;1.70;;;15.60;93.20;;;;;;5054334;28;20284;-61
2023/01/06 08:03:04;;;;;;;2.60;1.07;;;15.20;93.00;;;;;;5065394;28;20267;-61
2023/01/06 08:05:52;;;;;;;0.80;0.80;;;15.20;92.90;;;;;;5074674;28;20197;-61
2023/01/06 08:08:41;;;;;;;1.95;1.27;;;15.20;93.00;;;;;;5074381;28;20197;-61
2023/01/06 08:11:29;;;;;;;1.83;1.10;;;15.40;93.00;;;;;;5074655;28;20220;-61
2023/01/06 08:14:18;;;;;;;2.50;0.98;;;15.20;93.00;;;;;;5057599;28;20733;-61
2023/01/06 08:17:06;;;;;;;1.42;0.93;;;15.20;93.00;;;;;;5064805;28;20693;-61
2023/01/06 08:19:54;;;;;;;0.95;0.80;;;15.20;93.00;;;;;;5055141;28;20201;-61
2023/01/06 08:22:43;;;;;;;1.13;1.00;;;15.20;93.00;;;;;;5045422;28;20263;-61
2023/01/06 08:25:31;;;;;;;2.05;1.00;;;15.20;93.00;;;;;;5055534;28;20221;-61
2023/01/06 08:28:19;;;;;;;1.05;0.95;;;15.20;93.00;;;;;;5060412;28;20205;-61
2023/01/06 08:31:10;;;;;;;0.95;0.90;;;15.30;93.00;;;;;;5074186;28;20279;-61
2023/01/06 08:33:58;;;;;;;1.55;1.00;;;15.30;93.00;;;;;;5055452;28;20354;-61
2023/01/06 08:36:47;;;;;;;1.00;1.00;;;15.20;93.00;;;;;;5060710;28;20206;-62
2023/01/06 08:39:35;;;;;;;1.13;1.00;;;15.20;93.00;;;;;;5074658;28;20260;-61
2023/01/06 08:42:23;;;;;;;1.10;1.00;;;15.20;93.00;;;;;;5076699;28;20307;-61
2023/01/06 08:45:11;;;;;;;0.90;0.90;;;15.20;93.10;;;;;;5075461;28;20196;-61
2023/01/06 08:48:01;;;;;;;1.20;0.90;;;15.10;93.10;;;;;;5073339;28;20200;-61
2023/01/06 08:50:49;;;;;;;2.05;0.93;;;15.30;99.90;;;;;;5074314;28;20223;-61
2023/01/06 08:53:38;;;;;;;1.27;1.05;;;15.20;93.20;;;;;;5074410;28;20232;-61
2023/01/06 08:56:28;;;;;;;1.93;1.03;;;15.10;93.10;;;;;;5073811;28;20318;-61
2023/01/06 08:59:17;;;;;;;1.10;1.10;;;15.00;93.10;;;;;;5074094;28;20673;-61
2023/01/06 09:02:05;;;;;;;1.88;1.00;;;15.10;93.20;;;;;;5073207;28;20256;-61
2023/01/06 09:04:55;;;;;;;2.15;1.13;;;15.20;93.20;;;;;;5074319;28;20278;-61
2023/01/06 09:07:43;;;;;;;2.67;1.23;;;15.10;93.30;;;;;;5074263;28;20251;-61
2023/01/06 09:10:31;;;;;;;2.05;1.08;;;15.00;93.20;;;;;;5074147;28;20326;-61
2023/01/06 09:13:19;;;;;;;1.00;0.82;;;15.00;93.30;;;;;;5073379;28;20605;-61
2023/01/06 09:16:08;;;;;;;4.03;1.20;;;15.00;93.30;;;;;;5074007;28;20585;-61
2023/01/06 09:18:56;;;;;;;1.00;0.90;;;15.00;93.30;;;;;;5073588;28;20200;-61
2023/01/06 09:21:46;;;;;;;1.45;1.20;;;15.00;93.40;;;;;;5073107;28;20231;-61
2023/01/06 09:24:34;;;;;;;0.95;0.80;;;15.00;93.40;;;;;;5073575;28;20286;-61
2023/01/06 09:27:22;;;;;;;1.90;1.70;;;15.00;93.50;;;;;;5073255;28;20208;-61
2023/01/06 09:30:12;;;;;;;1.20;1.10;;;15.00;93.50;;;;;;5073441;28;20197;-61
2023/01/06 09:33:00;;;;;;;1.52;1.00;;;15.00;93.40;;;;;;5073469;28;20697;-61
2023/01/06 09:35:48;;;;;;;1.98;1.15;;;15.00;93.50;;;;;;5073588;28;20283;-61
2023/01/06 09:38:37;;;;;;;1.92;1.48;;;15.00;93.50;;;;;;5073700;28;20279;-61
2023/01/06 09:41:50;;;;;;;1.42;1.10;;;15.10;93.60;;;;;;5061197;28;20221;-61
2023/01/06 09:44:47;;;;;;;1.30;1.20;;;15.00;93.50;;;;;;5053110;28;20240;-61
2023/01/06 09:47:44;;;;;;;1.40;1.30;;;15.10;93.50;;;;;;5054920;28;20705;-61
2023/01/06 09:50:37;;;;;;;1.35;1.10;;;15.10;93.60;;;;;;5053028;28;20204;-61
2023/01/06 09:53:28;;;;;;;1.00;0.93;;;15.10;93.50;;;;;;5053903;28;20197;-61
2023/01/06 09:56:19;;;;;;;1.73;1.00;;;15.10;93.60;;;;;;5054204;28;20256;-61
2023/01/06 09:59:13;;;;;;;5.97;2.95;;;15.20;93.50;;;;;;5053308;28;20236;-61
2023/01/06 10:02:04;;;;;;;1.75;1.05;;;15.10;93.40;;;;;;5054020;28;20245;-60
2023/01/06 10:04:52;;;;;;;2.47;1.20;;;15.10;93.50;;;;;;5052890;28;20276;-61
2023/01/06 10:07:46;;;;;;;1.08;0.98;;;15.30;93.60;;;;;;5052395;28;20263;-61
2023/01/06 10:10:42;;;;;;;1.42;1.33;;;15.20;93.50;;;;;;5052461;28;20229;-61
2023/01/06 10:13:44;;;;;;;1.20;1.10;;;15.20;93.50;;;;;;5052646;28;20627;-61
2023/01/06 10:16:47;;;;;;;2.20;1.10;;;15.20;93.40;;;;;;5051981;28;20256;-62
2023/01/06 10:19:53;;;;;;;1.27;0.85;;;15.20;93.40;;;;;;5053904;28;20283;-61
2023/01/06 10:22:51;;;;;;;1.10;1.00;;;15.20;93.40;;;;;;5053162;28;20334;-62
2023/01/06 10:25:44;;;;;;;1.23;0.90;;;15.20;93.40;;;;;;5052790;28;20323;-62
2023/01/06 10:28:36;;;;;;;1.58;1.08;;;15.20;93.40;;;;;;5053854;28;20229;-61
2023/01/06 10:31:31;;;;;;;1.80;1.30;;;15.20;93.40;;;;;;5053357;28;20225;-61
2023/01/06 10:34:22;;;;;;;1.00;0.90;;;15.20;93.40;;;;;;5053207;28;20201;-61
2023/01/06 10:37:19;;;;;;;1.05;0.95;;;15.20;93.40;;;;;;5053141;28;20223;-62
2023/01/06 10:40:18;;;;;;;1.33;1.02;;;15.20;93.40;;;;;;5053092;28;20205;-62
2023/01/06 10:43:10;;;;;;;1.40;1.10;;;15.20;93.40;;;;;;5054072;28;20203;-61
2023/01/06 10:46:00;;;;;;;1.98;1.05;;;15.20;93.40;;;;;;5053933;28;20343;-61
2023/01/06 10:48:49;;;;;;;1.77;1.40;;;15.20;93.50;;;;;;5051755;28;20198;-61
2023/01/06 10:51:39;;;;;;;1.63;1.17;;;15.20;93.50;;;;;;5051642;28;20623;-61
2023/01/06 10:54:32;;;;;;;2.00;1.45;;;15.20;93.50;;;;;;5052654;28;20273;-61
2023/01/06 10:57:25;;;;;;;1.13;1.00;;;15.10;93.50;;;;;;5053309;28;20296;-62
2023/01/06 11:00:17;;;;;;;1.50;1.35;;;15.10;93.50;;;;;;5052430;28;20721;-61
2023/01/06 11:03:12;;;;;;;2.10;1.00;;;15.10;93.60;;;;;;5051418;28;20201;-61
2023/01/06 11:06:25;;;;;;;1.25;1.08;;;15.10;93.60;;;;;;5053400;28;20197;-62
2023/01/06 11:09:28;;;;;;;1.20;1.10;;;15.10;93.60;;;;;;5052800;28;20206;-61
2023/01/06 11:12:20;;;;;;;1.25;1.15;;;15.10;93.60;;;;;;5053502;28;20217;-62
2023/01/06 11:15:19;;;;;;;1.00;1.00;;;15.10;93.60;;;;;;5054021;28;20244;-62
2023/01/06 11:18:21;;;;;;;1.17;1.08;;;15.10;93.70;;;;;;5052646;28;20280;-62
2023/01/06 11:21:11;;;;;;;1.10;1.00;;;15.10;93.80;;;;;;5052772;28;20268;-61
2023/01/06 11:24:15;;;;;;;1.20;1.00;;;15.10;93.90;;;;;;5052476;28;20201;-61
2023/01/06 11:27:17;;;;;;;1.33;0.90;;;15.10;94.10;;;;;;5052386;28;20251;-61
2023/01/06 11:30:21;;;;;;;2.05;1.10;;;15.10;94.20;;;;;;5051920;28;20209;-61
2023/01/06 11:33:16;;;;;;;1.10;1.00;;;15.10;94.20;;;;;;5053271;28;20803;-61
2023/01/06 11:36:12;;;;;;;1.40;0.90;;;15.00;94.20;;;;;;5052685;28;20222;-61
2023/01/06 11:39:02;;;;;;;0.82;0.82;;;15.10;94.30;;;;;;5051482;28;20263;-61
2023/01/06 11:41:52;;;;;;;1.75;1.00;;;15.10;94.40;;;;;;5053419;28;20286;-61
2023/01/06 11:44:43;;;;;;;1.00;0.90;;;15.10;94.40;;;;;;5055770;28;20214;-61
2023/01/06 11:47:31;;;;;;;1.25;1.15;;;15.00;94.30;;;;;;5056666;28;20200;-61
2023/01/06 11:50:20;;;;;;;1.98;1.20;;;15.10;94.50;;;;;;5055896;28;20282;-61
2023/01/06 11:53:17;;;;;;;1.45;1.30;;;15.10;94.40;;;;;;5055609;28;20228;-62
2023/01/06 11:56:15;;;;;;;1.77;1.00;;;15.10;94.40;;;;;;5056168;28;20217;-61
2023/01/06 11:59:09;;;;;;;3.03;1.10;;;15.10;94.40;;;;;;5054761;28;20692;-61
2023/01/06 12:01:59;;;;;;;1.88;1.00;;;15.10;94.40;;;;;;5056247;28;20249;-61
2023/01/06 12:04:51;;;;;;;2.92;1.02;;;15.00;94.40;;;;;;5055576;28;20193;-61
2023/01/06 12:07:46;;;;;;;1.27;1.17;;;15.10;94.50;;;;;;5056037;28;20256;-61
2023/01/06 12:10:37;;;;;;;1.55;1.33;;;15.10;94.50;;;;;;5055004;28;20271;-61
2023/01/06 12:13:26;;;;;;;1.20;1.10;;;15.10;94.50;;;;;;5056135;28;20209;-61
2023/01/06 12:16:22;;;;;;;1.55;1.25;;;15.10;94.50;;;;;;5061940;28;20217;-61
2023/01/06 12:19:17;;;;;;;1.10;1.05;;;15.20;94.60;;;;;;5066692;28;20201;-62
2023/01/06 12:22:10;;;;;;;1.00;0.90;;;15.10;94.60;;;;;;5064289;28;20256;-61
2023/01/06 12:24:59;;;;;;;1.10;1.00;;;15.10;94.60;;;;;;5056119;28;20286;-61
2023/01/06 12:27:54;;;;;;;0.95;0.95;;;15.10;94.60;;;;;;5056559;28;20209;-61
2023/01/06 12:30:50;;;;;;;1.50;1.10;;;15.10;99.90;;;;;;5054856;28;20620;-61
2023/01/06 12:33:50;;;;;;;1.45;0.90;;;15.00;94.60;;;;;;5054634;28;20208;-61
2023/01/06 12:36:45;;;;;;;1.33;0.90;;;15.10;94.60;;;;;;5056028;28;20314;-61
2023/01/06 12:39:41;;;;;;;1.58;1.02;;;15.10;94.60;;;;;;5053741;28;20197;-61
2023/01/06 12:42:37;;;;;;;1.17;0.80;;;15.00;94.60;;;;;;5100252;22;20332;-66
2023/01/06 12:45:34;;;;;;;1.25;1.05;;;15.20;94.70;;;;;;5092585;28;20200;-63
2023/01/06 12:48:31;;;;;;;2.47;1.00;;;15.20;94.70;;;;;;5094275;28;20279;-67
2023/01/06 12:51:25;;;;;;;1.73;1.00;;;15.20;94.70;;;;;;5092602;28;20223;-65
2023/01/06 12:54:20;;;;;;;1.00;1.00;;;15.20;94.70;;;;;;5093232;28;20207;-66
2023/01/06 12:57:18;;;;;;;1.98;1.13;;;15.20;94.70;;;;;;5091623;28;20215;-64
2023/01/06 13:00:21;;;;;;;2.88;0.90;;;15.20;94.70;;;;;;5093268;28;20196;-65
2023/01/06 13:03:25;;;;;;;1.90;1.40;;;15.20;94.70;;;;;;5092505;28;20244;-64
2023/01/06 13:06:31;;;;;;;2.78;1.10;;;15.20;94.70;;;;;;5092889;28;20637;-66
2023/01/06 13:09:31;;;;;;;0.98;0.90;;;15.10;94.60;;;;;;5092026;28;20200;-67
2023/01/06 13:12:43;;;;;;;1.30;1.02;;;15.20;94.70;;;;;;5093036;28;20714;-64
2023/01/06 13:15:33;;;;;;;0.98;0.80;;;15.20;94.70;;;;;;5091220;28;20630;-66
2023/01/06 13:18:30;;;;;;;1.50;1.20;;;15.30;94.70;;;;;;5092558;28;20216;-65
2023/01/06 13:21:22;;;;;;;1.43;0.93;;;15.20;94.70;;;;;;5092148;28;20212;-63
2023/01/06 13:24:24;;;;;;;1.33;0.90;;;15.20;94.70;;;;;;5091423;28;20276;-66
2023/01/06 13:27:28;;;;;;;1.00;0.93;;;15.20;94.70;;;;;;5092455;28;20773;-66
2023/01/06 13:30:57;;;;;;;0.90;0.90;;;15.20;94.70;;;;;;5092426;28;20278;-66
2023/01/06 13:34:13;;;;;;;1.20;1.10;;;15.20;94.70;;;;;;5092841;28;20203;-66
2023/01/06 13:37:25;;;;;;;0.80;0.80;;;15.20;94.80;;;;;;5092184;28;20222;-66
2023/01/06 13:40:16;;;;;;;1.00;0.90;;;15.20;94.80;;;;;;5092493;28;20199;-65
2023/01/06 13:43:14;;;;;;;1.10;1.00;;;15.20;94.80;;;;;;5092690;28;20224;-66
2023/01/06 13:46:05;;;;;;;2.28;1.00;;;15.30;94.80;;;;;;5090267;28;20273;-67
2023/01/06 13:48:55;;;;;;;1.17;1.08;;;15.20;94.80;;;;;;5091791;28;20690;-66
2023/01/06 13:51:44;;;;;;;0.98;0.95;;;15.20;94.80;;;;;;5091873;28;20696;-67
2023/01/06 13:54:59;;;;;;;1.17;1.00;;;15.00;94.80;;;;;;5092649;28;20334;-66
2023/01/06 13:57:48;;;;;;;1.10;0.90;;;15.20;94.90;;;;;;5092454;28;20518;-66
2023/01/06 14:00:36;;;;;;;0.95;0.90;;;15.20;94.90;;;;;;5092063;28;20252;-63
2023/01/06 14:03:24;;;;;;;0.90;0.90;;;15.20;94.90;;;;;;5091690;28;20491;-64
2023/01/06 14:06:33;;;;;;;0.90;0.90;;;15.20;94.90;;;;;;5091388;28;20196;-67
2023/01/06 14:09:23;;;;;;;3.55;1.00;;;15.20;94.90;;;;;;5090886;28;20204;-66
2023/01/06 14:12:17;;;;;;;0.80;0.80;;;15.20;94.90;;;;;;5091371;28;20590;-67
2023/01/06 14:15:18;;;;;;;1.95;1.17;;;15.30;94.90;;;;;;5092162;28;20196;-66
2023/01/06 14:18:06;;;;;;;1.10;1.00;;;15.30;94.90;;;;;;5072221;28;20216;-66
2023/01/06 14:21:00;;;;;;;1.00;0.90;;;15.30;94.90;;;;;;5070357;28;20207;-63
2023/01/06 14:23:55;;;;;;;1.02;0.98;;;15.20;94.80;;;;;;5070736;28;20204;-66
2023/01/06 14:26:48;;;;;;;0.85;0.80;;;15.30;94.90;;;;;;5070754;28;20205;-66
2023/01/06 14:29:48;;;;;;;0.93;0.82;;;15.30;94.90;;;;;;5069783;28;20265;-67
2023/01/06 14:32:59;;;;;;;0.90;0.90;;;15.20;94.80;;;;;;5070360;28;20216;-65
2023/01/06 14:35:48;;;;;;;0.90;0.90;;;15.30;94.80;;;;;;5070562;28;20242;-64
2023/01/06 14:38:43;;;;;;;0.90;0.90;;;15.30;94.80;;;;;;5070373;28;20701;-66
2023/01/06 14:41:35;;;;;;;1.65;1.55;;;15.30;94.80;;;;;;5070343;28;20303;-63
2023/01/06 14:44:32;;;;;;;0.80;0.80;;;15.20;94.80;;;;;;5070612;28;20449;-64
2023/01/06 14:47:26;;;;;;;0.90;0.90;;;15.20;94.80;;;;;;5070137;28;20750;-67
2023/01/06 14:50:17;;;;;;;0.90;0.90;;;15.40;94.90;;;;;;5077492;28;20200;-66
2023/01/06 14:53:09;;;;;;;0.80;0.80;;;15.30;94.90;;;;;;5090022;28;20342;-63
2023/01/06 14:55:59;;;;;;;0.80;0.80;;;15.30;95.20;;;;;;5090629;28;20204;-66
2023/01/06 14:58:47;;;;;;;1.20;1.00;;;15.20;94.80;;;;;;5090344;28;20216;-64
2023/01/06 15:01:39;;;;;;;1.00;1.00;;;15.20;94.80;;;;;;5091662;28;20650;-66